EGGW/LTN METAR and TAF weather

Enter ICAO airport designator
Station Type Date Time Source
EGGW METAR 2022/01/27 23:50 UTC NOAA

EGGW 272350Z AUTO 29010KT 9999 NCD 04/03 Q1033


Station Type Date Time Source
EGGW Decoded METAR 2022/01/27 23:50 UTC NOAA

Luton Airport , United Kingdom (EGGW) 51-52N 000-22W
Jan 27, 2022 - 06:50 PM EST / 2022.01.27 2350 UTC
Wind: from the WNW (290 degrees) at 12 MPH (10 KT):0
Visibility: greater than 7 mile(s):0
Temperature: 39 F (4 C)
Dew Point: 37 F (3 C)
Relative Humidity: 93%
Pressure (altimeter): 30.50 in. Hg (1033 hPa)
ob: EGGW 272350Z AUTO 29010KT 9999 NCD 04/03 Q1033
cycle: 0

Station Type Date Time Source
EGGW TAF 2022/01/27 18:06 UTC NOAA

TAF EGGW 271655Z 2718/2818 30007KT 9999 FEW028 PROB30 2801/2804 9000
BECMG 2804/2807 7000 PROB30 2804/2809 4000 BR
BECMG 2809/2812 9999
BECMG 2812/2815 22010KT

Example: see airport list